This is the latest recevied weather packets stored in our database for station/object KA3RQR. If no packets are shown the sender has not sent any weather packets the latest 10 day(s).
| Time | Temp. | Humidity | Pressure | Rain* | Wind** | Luminosity | Snow |
|---|---|---|---|---|---|---|---|
| 1777936211 | 22.78° C | 41% | 1010 hPa | 0 mm | - | 31 W/m² | - |
| 1777935907 | 22.78° C | 40% | 1009.9 hPa | 0 mm | - | 24 W/m² | - |
| 1777935606 | 23.33° C | 40% | 1010 hPa | 0 mm | - | 26 W/m² | - |
| 1777935303 | 23.33° C | 40% | 1009.7 hPa | 0 mm | - | 30 W/m² | - |
| 1777935000 | 23.89° C | 40% | 1009.9 hPa | 0 mm | - | 39 W/m² | - |
| 1777934696 | 23.89° C | 40% | 1009.6 hPa | 0 mm | - | 76 W/m² | - |
| 1777934393 | 24.44° C | 37% | 1009.8 hPa | 0 mm | - | 104 W/m² | - |
| 1777934090 | 24.44° C | 39% | 1009.8 hPa | 0 mm | - | 117 W/m² | - |
| 1777933785 | 23.89° C | 38% | 1009.9 hPa | 0 mm | - | 140 W/m² | - |
| 1777933483 | 24.44° C | 37% | 1009.7 hPa | 0 mm | - | 138 W/m² | - |
| 1777933180 | 23.89° C | 37% | 1009.9 hPa | 0 mm | - | 171 W/m² | - |
| 1777932877 | 24.44° C | 36% | 1010 hPa | 0 mm | - | 108 W/m² | - |
| 1777932574 | 24.44° C | 37% | 1009.9 hPa | 0 mm | - | 200 W/m² | - |
| 1777932271 | 24.44° C | 36% | 1009.7 hPa | 0 mm | - | 204 W/m² | - |
| 1777931968 | 25° C | 36% | 1009.7 hPa | 0 mm | - | 219 W/m² | - |
| 1777931665 | 25° C | 35% | 1009.7 hPa | 0 mm | - | 244 W/m² | - |
| 1777931361 | 25° C | 35% | 1009.6 hPa | 0 mm | - | 248 W/m² | - |
| 1777931058 | 25° C | 35% | 1009.8 hPa | 0 mm | - | 262 W/m² | - |
| 1777930755 | 24.44° C | 35% | 1009.7 hPa | 0 mm | - | 293 W/m² | - |
| 1777930450 | 24.44° C | 36% | 1009.8 hPa | 0 mm | - | 72 W/m² | - |
| 1777930148 | 25° C | 35% | 1010 hPa | 0 mm | - | 362 W/m² | - |
| 1777929844 | 24.44° C | 36% | 1009.5 hPa | 0 mm | - | 372 W/m² | - |
| 1777929542 | 25.56° C | 34% | 1009.7 hPa | 0 mm | - | 352 W/m² | - |
| 1777929238 | 25° C | 35% | 1009.6 hPa | 0 mm | - | 379 W/m² | - |
| 1777928935 | 25.56° C | 34% | 1009.6 hPa | 0 mm | - | 388 W/m² | - |
* Rain latest hour (hover to see other rain measurements)
** Current wind speed in m/s (hover to see current wind gust speed)